• Join FlightAware (Why Join?)
  • Login
  • US Flag 
11:13PM EDT


 

Airport Tracker/Info


-or-


 

Live Flight TrackerFlight Track Log ✈ USC105 ✈ 23-Oct-2013 ✈ KBKL - KYIP

Flight Track Log - Related Links

Times and Time Zones

All times are in EDT time to prevent confusion due to time zone crossing. See the USC105 flight status page for this flight to view local times or setup timezone preferences in your user account.

Time Position Orientation Groundspeed Altitude Reporting Facility
EDT Latitude Longitude Course Direction KTS MPH feet Rate Location/Type
11:19PM 41.5278 -81.7133 295° West 123 142 2,100  Level Cleveland Center
11:20PM 41.5528 -81.7178 352° North 117 135 3,600 1,620 Climbing Cleveland Center
11:20PM 41.5558 -81.7261 296° West 122 140 3,800 1,200 Climbing Cleveland Center
11:21PM 41.5669 -81.7553 297° West 113 130 4,900 1,260 Climbing Cleveland Center
11:21PM 41.5714 -81.7622 311° West 114 131 5,100 960 Climbing Cleveland Center
11:22PM 41.5842 -81.7956 297° West 117 135 5,900 780 Climbing Cleveland Center
11:22PM 41.5886 -81.8042 305° West 140 161 5,900  Level Cleveland Center
11:23PM 41.6025 -81.8503 292° West 144 166 5,900  Level Cleveland Center
11:23PM 41.6067 -81.8603 299° West 162 186 5,900  Level Cleveland Center
11:24PM 41.6231 -81.9008 298° West 154 177 5,900  Level Cleveland Center
11:24PM 41.6308 -81.9147 307° West 151 174 5,900  Level Cleveland Center
11:25PM 41.6450 -81.9503 298° West 153 176 5,900 60 Level Cleveland Center
11:25PM 41.6514 -81.9656 299° West 159 183 6,000 60 Climbing Cleveland Center
11:26PM 41.6678 -82.0028 301° West 159 183 6,000  Level Cleveland Center
11:26PM 41.6719 -82.0167 292° West 160 184 6,000 -120 Level Cleveland Center
11:27PM 41.6881 -82.0575 298° West 162 186 5,900  Descending Cleveland Center
11:27PM 41.6961 -82.0711 308° West 171 197 6,000  Climbing Cleveland Center
11:28PM 41.7131 -82.1092 301° West 164 189 5,900  Descending Cleveland Center
11:28PM 41.7167 -82.1222 290° West 159 183 6,000 60 Climbing Cleveland Center
11:29PM 41.7367 -82.1761 296° West 161 185 6,000  Level Cleveland Center
11:30PM 41.7489 -82.2217 290° West 161 185 6,000  Level Cleveland Center
11:30PM 41.7525 -82.2319 295° West 161 185 6,000 -120 Level Cleveland Center
11:31PM 41.7703 -82.2856 294° West 157 181 5,900  Descending Cleveland Center
11:32PM 41.7856 -82.3297 295° West 161 185 6,000 60 Climbing Cleveland Center
11:32PM 41.7919 -82.3453 299° West 161 185 6,000  Level Cleveland Center
11:33PM 41.8094 -82.3875 299° West 161 185 6,000  Level Cleveland Center
11:34PM 41.8281 -82.4353 298° West 162 186 6,000  Level Cleveland Center
11:35PM 41.8503 -82.4908 298° West 161 185 6,000  Level Cleveland Center
11:35PM 41.8478 -82.4894 158° South 162 186 6,000 -120 Level Cleveland Center
11:36PM 41.8758 -82.5444 304° West 161 185 5,900 -120 Descending Cleveland Center
11:36PM 41.8728 -82.5386 125° Southeast 161 185 5,900 60 Level Cleveland Center
11:37PM 41.8994 -82.5950 302° West 163 188 6,000 60 Climbing Cleveland Center
11:37PM 41.8964 -82.5903 131° Southeast 162 186 6,000  Level Cleveland Center
11:38PM 41.9289 -82.6494 306° West 167 192 6,000  Level Cleveland Center
11:38PM 41.9281 -82.6503 217° Southwest 164 189 6,000  Level Cleveland Center
11:39PM 41.9528 -82.6972 305° West 167 192 6,000  Level Cleveland Center
11:39PM 41.9542 -82.7031 288° West 168 193 6,000  Level Cleveland Center
11:40PM 41.9744 -82.7450 303° West 169 194 6,000  Level Cleveland Center
11:40PM 41.9792 -82.7561 300° West 168 193 6,000  Level Cleveland Center
11:41PM 41.9997 -82.7989 303° West 166 191 6,000  Level Cleveland Center
11:41PM 42.0028 -82.8083 294° West 166 191 6,000  Level Cleveland Center
11:42PM 42.0289 -82.8589 305° West 168 193 6,000  Level Cleveland Center
11:42PM 42.0286 -82.8608 259° West 168 193 6,000  Level Cleveland Center
11:43PM 42.0494 -82.8925 312° West 168 193 6,000 -120 Level Cleveland Center
11:43PM 42.0575 -82.9089 304° West 166 191 5,900 -120 Descending Cleveland Center
11:44PM 42.0750 -82.9436 304° West 168 193 5,900  Level Cleveland Center
11:44PM 42.0825 -82.9631 297° West 168 193 5,900 60 Level Cleveland Center
11:45PM 42.0981 -83.0003 299° West 166 191 6,000  Climbing Cleveland Center
11:45PM 42.1044 -83.0172 297° West 167 192 5,900 -540 Descending Cleveland Center
11:46PM 42.1247 -83.0631 301° West 175 201 5,400 -600 Descending Cleveland Center
11:46PM 42.1294 -83.0728 303° West 172 198 5,300 -360 Descending Cleveland Center
11:47PM 42.1514 -83.1256 299° West 180 207 5,000 -300 Descending Cleveland Center
11:47PM 42.1533 -83.1319 292° West 179 206 5,000  Level Cleveland Center
11:48PM 42.1728 -83.1736 302° West 162 186 5,000  Level Cleveland Center
11:48PM 42.1772 -83.1847 298° West 170 196 5,000 -420 Level Cleveland Center
11:49PM 42.1961 -83.2247 303° West 162 186 4,600 -600 Descending Cleveland Center
11:49PM 42.2003 -83.2356 297° West 162 186 4,400 -660 Descending Cleveland Center
11:50PM 42.2214 -83.2764 305° West 182 209 4,000 -540 Descending Cleveland Center
11:50PM 42.2275 -83.2886 304° West 170 196 3,900 -300 Descending Cleveland Center
11:51PM 42.2469 -83.3250 306° West 153 176 3,700 -420 Descending Cleveland Center
11:51PM 42.2539 -83.3353 312° West 162 186 3,500 -840 Descending Cleveland Center
11:52PM 42.2747 -83.3739 306° West 162 186 2,900 -720 Descending Cleveland Center
11:52PM 42.2850 -83.3936 305° West 161 185 2,800 -420 Descending Cleveland Center
11:53PM 42.3006 -83.4200 309° West 151 174 2,500 -420 Descending Cleveland Center
11:53PM 42.2953 -83.4417 252° West 158 182 2,400 -600 Descending Cleveland Center
11:54PM 42.2728 -83.4767 229° Southwest 146 168 1,700 -900 Descending Cleveland Center
11:55PM 42.2514 -83.5089 228° Southwest 117 135 900 -840 Descending Cleveland Center
11:55PM 42.2486 -83.5111 211° Southwest 136 157 900 -120 Level Cleveland Center
11:56PM 42.2261 -83.5436 227° Southwest 133 153 800 -120 Descending Cleveland Center
11:58PM 42.2333 -83.5167 304° West  Level FlightAware Approximate